Time;durP1;ratioP1;P1;durP2;ratioP2;P2;SDS_P1;SDS_P2;PMS_P1;PMS_P2;Temp;Humidity;BMP_temperature;BMP_pressure;BME280_temperature;BME280_humidity;BME280_pressure;Samples;Min_cycle;Max_cycle;Signal;HPM_P1;HPM_P2
2022/05/02 00:00:49;;;;;;;;;;;;;;;8.13;55.14;102042.00;5066680;28;19920;-78
2022/05/02 00:03:15;;;;;;;;;;;;;;;8.10;55.31;102040.25;5065355;28;20279;-77
2022/05/02 00:05:40;;;;;;;;;;;;;;;8.07;55.17;102042.84;5066968;28;19932;-77
2022/05/02 00:08:05;;;;;;;;;;;;;;;8.06;55.03;102038.50;5063698;28;20055;-77
2022/05/02 00:10:31;;;;;;;;;;;;;;;8.04;55.14;102030.72;5062187;28;20183;-77
2022/05/02 00:12:56;;;;;;;;;;;;;;;8.02;55.41;102039.34;5062412;28;20655;-77
2022/05/02 00:15:21;;;;;;;;;;;;;;;7.97;55.29;102031.56;5067195;28;19921;-77
2022/05/02 00:17:56;;;;;;;;;;;;;;;7.92;55.98;102033.25;5028863;28;19916;-78
2022/05/02 00:20:21;;;;;;;;;;;;;;;7.87;55.31;102032.34;5064659;28;19920;-77
2022/05/02 00:22:46;;;;;;;;;;;;;;;7.81;55.60;102038.38;5062606;28;19919;-78
2022/05/02 00:25:13;;;;;;;;;;;;;;;7.75;55.52;102026.28;5066179;28;19929;-78
2022/05/02 00:27:39;;;;;;;;;;;;;;;7.74;55.87;102032.31;5062250;28;20492;-78
2022/05/02 00:30:05;;;;;;;;;;;;;;;7.71;56.11;102024.50;5066934;28;19974;-77
2022/05/02 00:32:30;;;;;;;;;;;;;;;7.67;56.51;102022.78;5063689;28;20980;-77
2022/05/02 00:34:55;;;;;;;;;;;;;;;7.64;56.25;102025.34;5061644;28;20058;-77
2022/05/02 00:37:20;;;;;;;;;;;;;;;7.60;56.74;102021.00;5059799;28;19967;-78
2022/05/02 00:39:46;;;;;;;;;;;;;;;7.55;57.12;102021.00;5042095;28;19991;-78
2022/05/02 00:42:11;;;;;;;;;;;;;;;7.51;57.04;102020.97;5063448;28;19919;-78
2022/05/02 00:44:40;;;;;;;;;;;;;;;7.48;57.15;102015.78;5065266;28;19955;-77
2022/05/02 00:47:05;;;;;;;;;;;;;;;7.43;56.83;102010.53;5061971;28;20316;-77
2022/05/02 00:49:30;;;;;;;;;;;;;;;7.43;56.97;102013.13;5065774;28;20007;-77
2022/05/02 00:51:56;;;;;;;;;;;;;;;7.41;56.75;102002.78;5066369;28;19918;-78
2022/05/02 00:54:21;;;;;;;;;;;;;;;7.39;56.61;102009.66;5060002;28;19928;-77
2022/05/02 00:56:46;;;;;;;;;;;;;;;7.34;56.80;102006.19;5063220;28;20023;-77
2022/05/02 00:59:14;;;;;;;;;;;;;;;7.28;57.40;102006.16;5065854;28;19912;-77
2022/05/02 01:01:40;;;;;;;;;;;;;;;7.25;57.54;102006.13;5063662;28;19959;-77
2022/05/02 01:04:05;;;;;;;;;;;;;;;7.22;57.48;102000.91;5063896;28;19967;-77
2022/05/02 01:09:14;;;;;;;;;;;;;;;7.10;57.41;102001.69;5059163;28;19923;-77
2022/05/02 01:11:39;;;;;;;;;;;;;;;7.04;58.09;102007.69;5060410;28;20267;-77
2022/05/02 01:14:07;;;;;;;;;;;;;;;7.03;57.80;102002.50;5063193;28;19955;-77
2022/05/02 01:16:33;;;;;;;;;;;;;;;7.02;57.84;102004.22;5061033;28;20461;-77
2022/05/02 01:18:59;;;;;;;;;;;;;;;7.04;57.85;102010.28;5062563;28;20011;-77
2022/05/02 01:21:25;;;;;;;;;;;;;;;7.02;57.76;102004.22;5063990;28;20394;-77
2022/05/02 01:23:51;;;;;;;;;;;;;;;6.98;57.68;102000.75;5061496;28;19924;-77
2022/05/02 01:26:17;;;;;;;;;;;;;;;6.95;57.82;101998.13;5062872;28;19912;-77
2022/05/02 01:28:46;;;;;;;;;;;;;;;6.93;58.12;102007.59;5061425;28;19932;-77
2022/05/02 01:31:12;;;;;;;;;;;;;;;6.90;58.02;102001.53;5063517;28;20114;-77
2022/05/02 01:33:37;;;;;;;;;;;;;;;6.90;58.17;101996.38;5062604;28;20076;-77
2022/05/02 01:36:02;;;;;;;;;;;;;;;6.86;58.22;102010.13;5061341;28;19916;-76
2022/05/02 01:38:28;;;;;;;;;;;;;;;6.83;58.15;102000.63;5063487;28;19920;-77
2022/05/02 01:40:53;;;;;;;;;;;;;;;6.79;58.32;101996.28;5065844;28;20386;-77
2022/05/02 01:43:18;;;;;;;;;;;;;;;6.76;58.09;102004.88;5070521;28;19966;-77
2022/05/02 01:45:43;;;;;;;;;;;;;;;6.74;58.17;101996.22;5065605;28;19912;-77
2022/05/02 01:48:08;;;;;;;;;;;;;;;6.66;58.32;102000.50;5064966;28;19963;-77
2022/05/02 01:50:34;;;;;;;;;;;;;;;6.58;58.63;101994.34;5064223;28;19912;-77
2022/05/02 01:52:59;;;;;;;;;;;;;;;6.48;58.64;101999.47;5068904;28;20291;-76
2022/05/02 01:55:24;;;;;;;;;;;;;;;6.38;58.91;101987.28;5067005;28;19912;-77
2022/05/02 01:57:49;;;;;;;;;;;;;;;6.28;59.36;101996.66;5067545;28;19917;-77
2022/05/02 02:00:14;;;;;;;;;;;;;;;6.23;59.46;101988.84;5066609;28;20559;-77
2022/05/02 02:02:40;;;;;;;;;;;;;;;6.25;59.79;101985.41;5067989;28;19919;-77
2022/05/02 02:07:49;;;;;;;;;;;;;;;6.25;59.86;101985.41;5063641;28;19924;-77
2022/05/02 02:10:14;;;;;;;;;;;;;;;6.27;60.23;101988.88;5067867;28;19913;-77
2022/05/02 02:12:39;;;;;;;;;;;;;;;6.28;59.86;101985.47;5067305;28;19962;-77
2022/05/02 02:15:05;;;;;;;;;;;;;;;6.29;60.28;101987.19;5061155;28;19932;-77
2022/05/02 02:17:30;;;;;;;;;;;;;;;6.27;60.24;101983.72;5064582;28;19912;-77
2022/05/02 02:19:55;;;;;;;;;;;;;;;6.27;60.16;101983.72;5045706;28;19920;-77
2022/05/02 02:22:21;;;;;;;;;;;;;;;6.26;59.78;101984.56;5046936;28;19913;-77
2022/05/02 02:24:46;;;;;;;;;;;;;;;6.18;60.28;101985.34;5068826;28;20331;-77
2022/05/02 02:27:12;;;;;;;;;;;;;;;6.11;60.06;101988.72;5063975;28;20311;-77
2022/05/02 02:29:37;;;;;;;;;;;;;;;6.06;60.13;101985.22;5062814;28;19916;-77
2022/05/02 02:32:02;;;;;;;;;;;;;;;6.06;60.59;101990.38;5061978;28;19920;-77
2022/05/02 02:34:27;;;;;;;;;;;;;;;6.04;60.27;101986.91;5067293;28;20010;-77
2022/05/02 02:36:53;;;;;;;;;;;;;;;6.00;60.93;101985.13;5068315;28;19916;-77
2022/05/02 02:39:18;;;;;;;;;;;;;;;5.92;60.77;101985.88;5066323;28;19934;-77
2022/05/02 02:41:43;;;;;;;;;;;;;;;5.87;61.10;101984.09;5064766;28;20290;-77
2022/05/02 02:44:08;;;;;;;;;;;;;;;5.87;60.73;101979.78;5067982;28;19920;-77
2022/05/02 02:46:33;;;;;;;;;;;;;;;5.86;61.21;101977.19;5064784;28;20254;-77
2022/05/02 02:48:58;;;;;;;;;;;;;;;5.85;61.79;101970.31;5066724;28;19920;-77
2022/05/02 02:51:24;;;;;;;;;;;;;;;5.84;60.87;101966.84;5065575;28;19912;-77
2022/05/02 02:53:50;;;;;;;;;;;;;;;5.86;61.19;101970.31;5066243;28;19931;-77
2022/05/02 02:56:15;;;;;;;;;;;;;;;5.86;61.26;101967.72;5065535;28;19916;-77
2022/05/02 02:58:40;;;;;;;;;;;;;;;5.87;61.13;101963.44;5066322;28;19916;-77
2022/05/02 03:01:06;;;;;;;;;;;;;;;5.83;61.54;101965.09;5063651;28;19947;-77
2022/05/02 03:03:31;;;;;;;;;;;;;;;5.81;61.51;101963.34;5066300;28;19912;-77
2022/05/02 03:06:02;;;;;;;;;;;;;;;5.77;61.08;101954.72;5065867;28;20305;-77
2022/05/02 03:08:28;;;;;;;;;;;;;;;5.75;61.63;101961.56;5065025;28;19956;-77
2022/05/02 03:10:55;;;;;;;;;;;;;;;5.76;61.18;101955.56;5065823;28;19975;-77
2022/05/02 03:13:20;;;;;;;;;;;;;;;5.73;61.24;101958.09;5066151;28;20027;-77
2022/05/02 03:15:47;;;;;;;;;;;;;;;5.68;61.27;101954.59;5065277;28;19999;-77
2022/05/02 03:18:12;;;;;;;;;;;;;;;5.67;61.48;101960.59;5067529;28;19912;-77
2022/05/02 03:20:37;;;;;;;;;;;;;;;5.65;61.26;101958.00;5063072;28;19927;-77
2022/05/02 03:23:02;;;;;;;;;;;;;;;5.65;61.57;101957.13;5065308;28;20007;-77
2022/05/02 03:25:27;;;;;;;;;;;;;;;5.64;61.59;101955.41;5066883;28;20282;-77
2022/05/02 03:27:52;;;;;;;;;;;;;;;5.62;61.95;101958.84;5066215;28;20301;-77
2022/05/02 03:30:18;;;;;;;;;;;;;;;5.61;61.96;101953.63;5064109;28;19920;-77
2022/05/02 03:32:43;;;;;;;;;;;;;;;5.60;61.83;101955.38;5062572;28;19927;-77
2022/05/02 03:35:08;;;;;;;;;;;;;;;5.59;61.94;101950.16;5044584;28;19920;-77
2022/05/02 03:37:33;;;;;;;;;;;;;;;5.56;61.85;101947.53;5067407;28;19916;-77
2022/05/02 03:39:58;;;;;;;;;;;;;;;5.55;62.01;101946.69;5065474;28;19912;-77
2022/05/02 03:42:24;;;;;;;;;;;;;;;5.56;61.97;101948.44;5065041;28;20202;-77
2022/05/02 03:44:49;;;;;;;;;;;;;;;5.55;62.01;101951.00;5066251;28;19912;-77
2022/05/02 03:47:14;;;;;;;;;;;;;;;5.54;61.65;101947.53;5063974;28;19917;-77
2022/05/02 03:49:39;;;;;;;;;;;;;;;5.53;62.15;101948.38;5063206;28;19954;-77
2022/05/02 03:52:05;;;;;;;;;;;;;;;5.53;62.02;101950.97;5064830;28;20295;-77
2022/05/02 03:54:30;;;;;;;;;;;;;;;5.51;61.94;101944.06;5067766;28;20011;-77
2022/05/02 03:56:55;;;;;;;;;;;;;;;5.49;62.15;101949.19;5062442;28;19943;-77
2022/05/02 03:59:21;;;;;;;;;;;;;;;5.48;62.10;101952.59;5064198;28;20383;-77
2022/05/02 04:01:46;;;;;;;;;;;;;;;5.46;62.50;101951.75;5059303;28;20352;-77
2022/05/02 04:04:11;;;;;;;;;;;;;;;5.43;62.40;101951.69;5065522;28;19954;-77
2022/05/02 04:06:36;;;;;;;;;;;;;;;5.36;62.98;101949.88;5060156;28;19913;-77
2022/05/02 04:09:02;;;;;;;;;;;;;;;5.34;62.92;101951.56;5062436;28;20462;-77
2022/05/02 04:11:27;;;;;;;;;;;;;;;5.28;62.72;101952.34;5062125;28;20035;-77
2022/05/02 04:13:53;;;;;;;;;;;;;;;5.27;63.31;101951.50;5063834;28;20026;-77
2022/05/02 04:16:18;;;;;;;;;;;;;;;5.26;63.29;101949.75;5062292;28;19971;-77
2022/05/02 04:18:43;;;;;;;;;;;;;;;5.28;62.79;101953.22;5058294;28;19970;-77
2022/05/02 04:21:08;;;;;;;;;;;;;;;5.28;63.21;101950.66;5037852;28;19920;-77
2022/05/02 04:23:34;;;;;;;;;;;;;;;5.30;63.30;101948.94;5041476;28;19983;-78
2022/05/02 04:25:59;;;;;;;;;;;;;;;5.30;63.04;101956.66;5039571;28;21685;-77
2022/05/02 04:28:24;;;;;;;;;;;;;;;5.29;63.46;101954.06;5042317;28;20367;-77
2022/05/02 04:30:49;;;;;;;;;;;;;;;5.31;63.29;101955.81;5037782;28;19924;-77
2022/05/02 04:33:15;;;;;;;;;;;;;;;5.33;63.33;101953.28;5023294;28;19924;-77
2022/05/02 04:35:40;;;;;;;;;;;;;;;5.34;63.25;101952.44;5035761;28;19916;-77
2022/05/02 04:38:05;;;;;;;;;;;;;;;5.37;63.11;101951.59;5038302;28;19913;-77
2022/05/02 04:40:30;;;;;;;;;;;;;;;5.39;63.71;101948.19;5021907;28;19919;-78
2022/05/02 04:42:55;;;;;;;;;;;;;;;5.40;63.56;101943.91;5038787;28;19920;-77
2022/05/02 04:45:21;;;;;;;;;;;;;;;5.34;63.73;101944.69;5037625;28;20379;-77
2022/05/02 04:47:46;;;;;;;;;;;;;;;5.32;63.91;101943.81;5040605;28;19916;-77
2022/05/02 04:50:11;;;;;;;;;;;;;;;5.34;63.68;101938.66;5038854;28;19917;-77
2022/05/02 04:52:37;;;;;;;;;;;;;;;5.37;63.60;101941.28;5041249;28;20252;-77
2022/05/02 04:55:02;;;;;;;;;;;;;;;5.41;64.01;101943.06;5040343;28;19947;-77
2022/05/02 04:57:27;;;;;;;;;;;;;;;5.48;63.91;101947.44;5037231;28;19917;-77
2022/05/02 04:59:52;;;;;;;;;;;;;;;5.51;64.12;101944.91;5039477;28;19913;-77
2022/05/02 05:02:17;;;;;;;;;;;;;;;5.54;64.39;101950.13;5037676;28;20007;-77
2022/05/02 05:04:43;;;;;;;;;;;;;;;5.60;64.95;101955.38;5043848;28;19924;-77
2022/05/02 05:07:08;;;;;;;;;;;;;;;5.67;65.10;101955.44;5040332;28;19913;-77
2022/05/02 05:09:33;;;;;;;;;;;;;;;5.75;64.66;101956.41;5040180;28;19916;-77
2022/05/02 05:12:15;;;;;;;;;;;;;;;5.82;64.85;101955.63;5045831;28;20272;-77
2022/05/02 05:17:36;;;;;;;;;;;;;;;6.00;64.48;101948.97;5043772;28;20276;-77
2022/05/02 05:20:18;;;;;;;;;;;;;;;6.02;63.93;101949.84;5057302;28;19971;-77
2022/05/02 05:22:58;;;;;;;;;;;;;;;5.99;64.38;101958.41;5063494;28;19919;-77
2022/05/02 05:25:23;;;;;;;;;;;;;;;6.03;64.91;101949.00;5063416;28;19927;-77
2022/05/02 05:28:04;;;;;;;;;;;;;;;6.08;64.73;101960.25;5068565;28;19999;-77
2022/05/02 05:30:35;;;;;;;;;;;;;;;6.14;64.89;101955.19;5069139;28;19912;-77
2022/05/02 05:33:15;;;;;;;;;;;;;;;6.23;64.90;101957.00;5069411;28;20023;-77
2022/05/02 05:35:44;;;;;;;;;;;;;;;6.35;64.96;101956.22;5067007;28;19987;-77
2022/05/02 05:38:14;;;;;;;;;;;;;;;6.48;64.92;101952.03;5068861;28;20006;-77
2022/05/02 05:40:42;;;;;;;;;;;;;;;6.61;64.93;101953.03;5044015;28;20306;-77
2022/05/02 05:43:10;;;;;;;;;;;;;;;6.71;65.31;101949.66;5065271;28;19955;-77
2022/05/02 05:45:48;;;;;;;;;;;;;;;6.79;65.60;101952.31;5072346;28;19917;-77
2022/05/02 05:48:16;;;;;;;;;;;;;;;6.89;66.08;101955.81;5070153;28;19920;-77
2022/05/02 05:50:42;;;;;;;;;;;;;;;6.98;65.88;101955.91;5073781;28;19913;-77
2022/05/02 05:53:25;;;;;;;;;;;;;;;7.04;64.61;101950.75;5072362;28;19916;-77
2022/05/02 05:56:00;;;;;;;;;;;;;;;7.14;65.72;101955.16;5067981;28;19912;-77
2022/05/02 05:58:32;;;;;;;;;;;;;;;7.23;66.90;101958.66;5068210;28;19916;-77
2022/05/02 06:01:11;;;;;;;;;;;;;;;7.33;65.26;101959.56;5044935;28;19920;-77
2022/05/02 06:03:42;;;;;;;;;;;;;;;7.41;65.78;101963.94;5070231;28;19920;-77
2022/05/02 06:06:07;;;;;;;;;;;;;;;7.51;64.71;101962.25;5067574;28;20280;-77
2022/05/02 06:08:33;;;;;;;;;;;;;;;7.60;64.78;101961.44;5068647;28;19918;-77
2022/05/02 06:10:59;;;;;;;;;;;;;;;7.67;65.14;101958.03;5061343;28;19912;-77
2022/05/02 06:13:27;;;;;;;;;;;;;;;7.74;65.34;101959.78;5064743;28;19924;-77
2022/05/02 06:18:38;;;;;;;;;;;;;;;7.91;66.04;101958.97;5067175;28;20009;-77
2022/05/02 06:21:05;;;;;;;;;;;;;;;8.00;67.06;101955.53;5067833;28;19959;-77
2022/05/02 06:23:40;;;;;;;;;;;;;;;8.11;64.64;101959.06;5066736;28;19913;-77
2022/05/02 06:26:06;;;;;;;;;;;;;;;8.25;65.65;101959.06;5064158;28;20002;-77
2022/05/02 06:28:42;;;;;;;;;;;;;;;8.39;65.11;101958.22;5062885;28;19935;-77
2022/05/02 06:31:21;;;;;;;;;;;;;;;8.50;64.47;101959.16;5063504;28;19920;-77
2022/05/02 06:33:48;;;;;;;;;;;;;;;8.65;63.88;101959.16;5062501;28;19916;-77
2022/05/02 06:36:33;;;;;;;;;;;;;;;8.76;63.52;101958.28;5065199;28;19916;-78
2022/05/02 06:39:10;;;;;;;;;;;;;;;8.88;62.97;101960.00;5039448;28;19916;-77
2022/05/02 06:41:57;;;;;;;;;;;;;;;8.98;63.04;101958.28;5068677;28;20275;-77
2022/05/02 06:44:30;;;;;;;;;;;;;;;9.10;63.19;101960.84;5064810;28;19912;-77
2022/05/02 06:47:01;;;;;;;;;;;;;;;9.20;62.55;101959.97;5065532;28;19912;-77
2022/05/02 06:49:27;;;;;;;;;;;;;;;9.32;62.60;101961.66;5037876;28;20036;-77
2022/05/02 06:51:55;;;;;;;;;;;;;;;9.41;62.40;101960.78;5067523;28;19912;-77
2022/05/02 06:54:20;;;;;;;;;;;;;;;9.51;62.53;101957.28;5054927;28;19916;-77
2022/05/02 06:57:07;;;;;;;;;;;;;;;9.61;62.36;101960.72;5071460;28;19958;-77
2022/05/02 06:59:38;;;;;;;;;;;;;;;9.73;61.93;101959.81;5066174;28;19912;-77
2022/05/02 07:02:15;;;;;;;;;;;;;;;9.83;61.95;101963.22;5067447;28;19998;-77
2022/05/02 07:04:44;;;;;;;;;;;;;;;9.94;61.71;101965.78;5051228;28;19916;-77
2022/05/02 07:07:25;;;;;;;;;;;;;;;10.03;61.31;101957.94;5069221;28;19956;-77
2022/05/02 07:10:11;;;;;;;;;;;;;;;10.12;61.25;101954.44;5071790;28;19916;-77
2022/05/02 07:12:45;;;;;;;;;;;;;;;10.21;60.73;101956.94;5067612;28;19919;-77
2022/05/02 07:15:13;;;;;;;;;;;;;;;10.30;60.54;101958.63;5066226;28;19916;-77
2022/05/02 07:17:52;;;;;;;;;;;;;;;10.37;60.50;101960.34;5066780;28;19912;-77
2022/05/02 07:20:23;;;;;;;;;;;;;;;10.44;60.08;101956.81;5068464;28;19917;-77
2022/05/02 07:23:00;;;;;;;;;;;;;;;10.54;60.12;101956.78;5065682;28;19919;-77
2022/05/02 07:25:28;;;;;;;;;;;;;;;10.63;59.88;101959.28;5064399;28;19916;-77
2022/05/02 07:28:06;;;;;;;;;;;;;;;10.72;59.86;101950.53;5065379;28;19992;-77
2022/05/02 07:30:32;;;;;;;;;;;;;;;10.81;59.49;101960.00;5066863;28;20160;-77
2022/05/02 07:33:00;;;;;;;;;;;;;;;10.87;59.42;101954.75;5073035;28;20468;-77
2022/05/02 07:35:26;;;;;;;;;;;;;;;10.94;59.35;101956.41;5068376;28;19970;-77
2022/05/02 07:37:52;;;;;;;;;;;;;;;11.00;58.79;101955.53;5062033;28;20326;-77
2022/05/02 07:40:19;;;;;;;;;;;;;;;11.05;58.68;101959.81;5066197;28;20452;-77
2022/05/02 07:42:45;;;;;;;;;;;;;;;11.11;58.81;101952.78;5066510;28;19923;-77
2022/05/02 07:45:10;;;;;;;;;;;;;;;11.18;58.55;101951.84;5066654;28;20054;-77
2022/05/02 07:47:36;;;;;;;;;;;;;;;11.27;58.45;101959.59;5063691;28;19932;-77
2022/05/02 07:50:02;;;;;;;;;;;;;;;11.32;58.25;101960.38;5067498;28;21500;-77
2022/05/02 07:52:28;;;;;;;;;;;;;;;11.41;58.07;101963.78;5064368;28;20002;-77
2022/05/02 07:54:55;;;;;;;;;;;;;;;11.48;57.58;101949.78;5059042;28;20008;-77
2022/05/02 07:57:21;;;;;;;;;;;;;;;11.53;57.47;101950.59;5057982;28;19963;-77
2022/05/02 07:59:50;;;;;;;;;;;;;;;11.59;57.20;101952.28;5068602;28;20439;-77
2022/05/02 08:02:16;;;;;;;;;;;;;;;11.64;57.27;101956.53;5056590;28;19913;-77
2022/05/02 08:04:42;;;;;;;;;;;;;;;11.74;57.06;101953.84;5059622;28;20271;-77
2022/05/02 08:07:13;;;;;;;;;;;;;;;11.80;56.84;101951.13;5069704;28;20389;-77
2022/05/02 08:09:41;;;;;;;;;;;;;;;11.87;56.77;101955.41;5064999;28;19920;-77
2022/05/02 08:12:16;;;;;;;;;;;;;;;11.90;56.35;101955.34;5057891;28;19916;-78
2022/05/02 08:15:03;;;;;;;;;;;;;;;11.97;56.65;101956.13;5055951;28;19963;-77
2022/05/02 08:17:41;;;;;;;;;;;;;;;12.05;56.23;101949.09;5064525;28;19912;-77
2022/05/02 08:20:19;;;;;;;;;;;;;;;12.10;55.90;101949.88;5054115;28;20375;-79
2022/05/02 08:28:45;;;;;;;;;;;;;;;12.24;55.66;101952.31;5060945;28;19927;-78
2022/05/02 08:31:12;;;;;;;;;;;;;;;12.26;54.93;101942.72;5039636;28;20375;-78
2022/05/02 08:33:42;;;;;;;;;;;;;;;12.28;54.83;101951.38;5054219;28;19951;-78
2022/05/02 08:36:23;;;;;;;;;;;;;;;12.34;55.00;101940.00;5060294;28;19978;-77
2022/05/02 08:39:00;;;;;;;;;;;;;;;12.39;54.54;101948.59;5059084;28;19966;-77
2022/05/02 08:41:28;;;;;;;;;;;;;;;12.48;54.60;101946.72;5056664;28;19921;-78
2022/05/02 08:44:24;;;;;;;;;;;;;;;12.53;53.87;101939.69;5058133;28;19927;-79
2022/05/02 08:47:15;;;;;;;;;;;;;;;12.59;54.70;101943.06;5057832;28;19932;-78
2022/05/02 08:49:59;;;;;;;;;;;;;;;12.67;53.83;101940.31;5056527;28;19921;-77
2022/05/02 08:52:47;;;;;;;;;;;;;;;12.70;53.40;101937.66;5055345;28;19927;-76
2022/05/02 08:55:28;;;;;;;;;;;;;;;12.72;53.51;101941.09;5055522;28;19924;-78
2022/05/02 08:58:12;;;;;;;;;;;;;;;12.75;52.24;101934.97;5056533;28;19975;-78
2022/05/02 09:00:49;;;;;;;;;;;;;;;12.80;52.53;101943.59;5056178;28;19927;-78
2022/05/02 09:03:37;;;;;;;;;;;;;;;12.86;52.81;101937.41;5056170;28;20099;-80
2022/05/02 09:06:02;;;;;;;;;;;;;;;12.90;52.77;101934.69;5054701;28;19920;-78
2022/05/02 09:08:27;;;;;;;;;;;;;;;12.92;51.72;101942.50;5056230;28;19916;-78
2022/05/02 09:10:58;;;;;;;;;;;;;;;12.92;51.89;101942.50;5061195;28;19923;-78
2022/05/02 09:13:33;;;;;;;;;;;;;;;12.91;51.53;101935.53;5061630;28;20318;-78
2022/05/02 09:16:17;;;;;;;;;;;;;;;12.89;51.48;101932.97;5060950;28;19916;-77
2022/05/02 09:18:53;;;;;;;;;;;;;;;12.93;51.47;101933.78;5061628;28;19920;-78
2022/05/02 09:21:18;;;;;;;;;;;;;;;12.95;51.35;101926.78;5062533;28;20019;-77
2022/05/02 09:23:58;;;;;;;;;;;;;;;12.96;51.31;101938.09;5062765;28;20010;-77
2022/05/02 09:26:59;;;;;;;;;;;;;;;13.01;51.62;101939.72;5061663;28;19920;-77
2022/05/02 09:29:27;;;;;;;;;;;;;;;13.08;51.63;101935.25;5002585;28;19932;-78
2022/05/02 09:31:52;;;;;;;;;;;;;;;13.10;50.83;101929.97;5045459;28;19916;-78
2022/05/02 09:34:18;;;;;;;;;;;;;;;13.07;50.54;101930.91;5059359;28;19935;-77
2022/05/02 09:36:49;;;;;;;;;;;;;;;13.01;49.69;101928.41;5059460;28;20478;-77
2022/05/02 09:39:16;;;;;;;;;;;;;;;13.01;51.08;101928.41;5059636;28;20033;-78
2022/05/02 09:42:00;;;;;;;;;;;;;;;13.08;50.84;101926.53;5060514;28;19921;-78
2022/05/02 09:50:12;;;;;;;;;;;;;;;13.32;50.17;101920.84;5057689;28;19923;-78
2022/05/02 09:52:43;;;;;;;;;;;;;;;13.39;50.26;101911.13;5058284;28;20653;-77
2022/05/02 09:57:59;;;;;;;;;;;;;;;13.53;49.76;101905.66;5057008;28;20063;-76
2022/05/02 10:03:32;;;;;;;;;;;;;;;13.71;49.26;101907.00;5058397;28;19927;-77
2022/05/02 10:06:13;;;;;;;;;;;;;;;13.75;48.55;101903.44;5059710;28;19998;-77
2022/05/02 10:08:51;;;;;;;;;;;;;;;13.81;49.04;101907.66;5061406;28;19923;-78
2022/05/02 10:11:16;;;;;;;;;;;;;;;13.87;48.75;101911.91;5061891;28;19924;-79
2022/05/02 10:13:41;;;;;;;;;;;;;;;13.92;49.16;101904.81;5061401;28;19962;-77
2022/05/02 10:16:34;;;;;;;;;;;;;;;13.96;48.83;101906.47;5062299;28;19916;-78
2022/05/02 10:19:18;;;;;;;;;;;;;;;14.01;48.60;101901.97;5029051;28;19925;-79
2022/05/02 10:21:54;;;;;;;;;;;;;;;14.04;48.39;101907.13;5061683;28;19920;-78
2022/05/02 10:24:36;;;;;;;;;;;;;;;14.07;48.20;101896.59;5062120;28;19921;-78
2022/05/02 10:27:14;;;;;;;;;;;;;;;14.10;48.73;101901.78;5062578;28;19916;-78
2022/05/02 10:29:56;;;;;;;;;;;;;;;14.11;47.86;101895.66;5063054;28;19923;-79
2022/05/02 10:32:33;;;;;;;;;;;;;;;14.16;48.05;101886.84;5062908;28;19916;-84
2022/05/02 10:34:59;;;;;;;;;;;;;;;14.17;47.85;101893.78;5063465;28;19951;-78
2022/05/02 10:37:28;;;;;;;;;;;;;;;14.17;48.63;101893.78;5062114;28;19920;-79
2022/05/02 10:39:57;;;;;;;;;;;;;;;14.18;47.86;101888.50;5061474;28;19960;-78
2022/05/02 10:42:25;;;;;;;;;;;;;;;14.20;48.32;101884.09;5062197;28;20442;-77
2022/05/02 10:45:04;;;;;;;;;;;;;;;14.23;48.08;101884.03;5060831;28;19931;-78
2022/05/02 10:47:39;;;;;;;;;;;;;;;14.24;47.51;101884.88;5059030;28;19920;-79
2022/05/02 10:50:14;;;;;;;;;;;;;;;14.24;47.71;101879.63;5060069;28;19955;-79
2022/05/02 10:52:58;;;;;;;;;;;;;;;14.30;48.47;101876.88;5062058;28;20275;-79
2022/05/02 10:55:26;;;;;;;;;;;;;;;14.35;47.98;101880.22;5061727;28;19924;-79
2022/05/02 10:57:52;;;;;;;;;;;;;;;14.40;47.38;101875.75;5060909;28;19920;-79
2022/05/02 11:00:17;;;;;;;;;;;;;;;14.40;46.52;101875.75;5059496;28;19944;-79
2022/05/02 11:02:51;;;;;;;;;;;;;;;14.36;46.86;101868.00;5061087;28;19921;-79
2022/05/02 11:05:17;;;;;;;;;;;;;;;14.36;46.02;101861.00;5061859;28;19991;-79
2022/05/02 11:07:48;;;;;;;;;;;;;;;14.37;46.89;101854.88;5061162;28;20015;-79
2022/05/02 11:10:17;;;;;;;;;;;;;;;14.37;46.32;101860.09;5060805;28;20386;-79
2022/05/02 11:12:42;;;;;;;;;;;;;;;14.40;47.59;101857.41;5062067;28;19924;-78
2022/05/02 11:15:16;;;;;;;;;;;;;;;14.47;47.08;101858.13;5063192;28;19916;-79
2022/05/02 11:17:54;;;;;;;;;;;;;;;14.51;47.29;101864.16;5060006;28;20008;-78
2022/05/02 11:20:43;;;;;;;;;;;;;;;14.52;47.02;101848.38;5061027;28;19924;-79
2022/05/02 11:23:28;;;;;;;;;;;;;;;14.54;45.68;101853.56;5046564;28;19920;-79
2022/05/02 11:25:53;;;;;;;;;;;;;;;14.60;46.57;101858.66;5058761;28;19974;-83
2022/05/02 11:28:19;;;;;;;;;;;;;;;14.66;46.43;101853.28;5060138;28;20007;-78
2022/05/02 11:30:53;;;;;;;;;;;;;;;14.68;45.59;101854.13;5060589;28;19926;-78
2022/05/02 11:33:39;;;;;;;;;;;;;;;14.70;46.00;101844.44;5058571;28;19920;-78
2022/05/02 11:36:08;;;;;;;;;;;;;;;14.75;45.57;101843.47;5061669;28;19931;-79
2022/05/02 11:38:53;;;;;;;;;;;;;;;14.77;44.85;101836.44;5061288;28;19948;-79
2022/05/02 11:41:19;;;;;;;;;;;;;;;14.79;45.49;101837.25;5042733;28;19920;-80
2022/05/02 11:43:46;;;;;;;;;;;;;;;14.81;45.13;101828.44;5059274;28;20332;-80
2022/05/02 11:46:16;;;;;;;;;;;;;;;14.89;45.49;101830.00;5059070;28;19921;-80
2022/05/02 11:48:53;;;;;;;;;;;;;;;14.95;45.30;101830.69;5055325;28;19920;-78
2022/05/02 11:51:33;;;;;;;;;;;;;;;15.01;45.56;101829.63;5061007;28;19916;-79
2022/05/02 11:54:04;;;;;;;;;;;;;;;15.08;45.41;101825.94;5058882;28;19960;-78
2022/05/02 11:56:36;;;;;;;;;;;;;;;15.14;45.64;101828.38;5059917;28;19920;-79
2022/05/02 11:59:04;;;;;;;;;;;;;;;15.15;44.87;101830.09;5058295;28;19974;-80
2022/05/02 12:01:36;;;;;;;;;;;;;;;15.18;45.62;101827.38;5061205;28;20542;-78
2022/05/02 12:04:03;;;;;;;;;;;;;;;15.23;45.34;101829.03;5060255;28;19924;-80
2022/05/02 12:06:31;;;;;;;;;;;;;;;15.26;45.13;101823.69;5057931;28;19916;-79
2022/05/02 12:08:59;;;;;;;;;;;;;;;15.27;45.32;101828.88;5040865;28;19916;-79
2022/05/02 12:11:24;;;;;;;;;;;;;;;15.26;45.21;101824.53;5043425;28;20295;-83
2022/05/02 12:13:51;;;;;;;;;;;;;;;15.30;45.65;101826.19;5055322;28;19931;-79
2022/05/02 12:16:19;;;;;;;;;;;;;;;15.38;45.19;101825.06;5054898;28;20383;-79
2022/05/02 12:18:57;;;;;;;;;;;;;;;15.44;44.89;101822.28;5058193;28;19932;-80
2022/05/02 12:21:23;;;;;;;;;;;;;;;15.52;45.61;101809.78;5057862;28;19916;-79
2022/05/02 12:23:49;;;;;;;;;;;;;;;15.61;44.74;101820.00;5059280;28;19923;-79
2022/05/02 12:26:16;;;;;;;;;;;;;;;15.70;44.71;101818.00;5056024;28;20713;-79
2022/05/02 12:28:42;;;;;;;;;;;;;;;15.77;44.26;101809.00;5058932;28;20442;-79
2022/05/02 12:31:09;;;;;;;;;;;;;;;15.87;43.88;101810.47;5059142;28;19916;-79
2022/05/02 12:33:39;;;;;;;;;;;;;;;15.93;43.90;101807.63;5058963;28;19920;-79
2022/05/02 12:36:10;;;;;;;;;;;;;;;15.99;43.98;101806.56;5058310;28;19916;-78
2022/05/02 12:38:35;;;;;;;;;;;;;;;16.05;44.38;101811.63;5057628;28;19920;-80
2022/05/02 12:41:04;;;;;;;;;;;;;;;16.12;43.21;101807.03;5058352;28;19927;-79
2022/05/02 12:43:40;;;;;;;;;;;;;;;16.17;43.96;101812.09;5059728;28;20257;-79
2022/05/02 12:46:09;;;;;;;;;;;;;;;16.23;44.17;101807.50;5057590;28;20359;-79
2022/05/02 12:48:36;;;;;;;;;;;;;;;16.29;43.96;101806.47;5060068;28;19928;-79
2022/05/02 12:51:02;;;;;;;;;;;;;;;16.34;43.76;101806.28;5058062;28;19920;-79
2022/05/02 12:56:11;;;;;;;;;;;;;;;16.43;43.54;101798.09;5058014;28;19928;-80
2022/05/02 13:01:23;;;;;;;;;;;;;;;16.52;43.38;101789.91;5058781;28;20014;-79
2022/05/02 13:03:55;;;;;;;;;;;;;;;16.58;43.24;101786.19;5058600;28;20006;-77
2022/05/02 13:06:21;;;;;;;;;;;;;;;16.65;42.72;101792.06;5059700;28;19920;-78
2022/05/02 13:08:46;;;;;;;;;;;;;;;16.67;43.31;101787.63;5059118;28;20338;-77
2022/05/02 13:11:12;;;;;;;;;;;;;;;16.72;43.87;101784.81;5057628;28;19955;-78
2022/05/02 13:13:47;;;;;;;;;;;;;;;16.77;42.91;101775.84;5059921;28;20296;-78
2022/05/02 13:16:15;;;;;;;;;;;;;;;16.81;42.99;101774.84;5059508;28;19935;-77
2022/05/02 13:18:47;;;;;;;;;;;;;;;16.86;43.17;101779.06;5057805;28;19917;-78
2022/05/02 13:21:13;;;;;;;;;;;;;;;16.89;42.41;101774.53;5057860;28;20386;-78
2022/05/02 13:23:39;;;;;;;;;;;;;;;16.94;42.03;101769.97;5060975;28;19924;-78
2022/05/02 13:26:11;;;;;;;;;;;;;;;16.97;41.97;101766.41;5060323;28;20411;-77
2022/05/02 13:28:39;;;;;;;;;;;;;;;16.94;40.81;101766.47;5059283;28;20421;-78